sensor_id;sensor_type;location;lat;lon;timestamp;pressure;altitude;pressure_sealevel;temperature;humidity
65659;BME280;60181;53.258;6.932;2023-04-06T00:00:13;102089.00;;;13.08;53.78
65659;BME280;60181;53.258;6.932;2023-04-06T00:04:17;102085.13;;;13.07;53.80
65659;BME280;60181;53.258;6.932;2023-04-06T00:08:21;102080.98;;;13.07;53.72
65659;BME280;60181;53.258;6.932;2023-04-06T00:12:25;102076.62;;;13.06;53.78
65659;BME280;60181;53.258;6.932;2023-04-06T00:16:29;102073.00;;;13.06;53.76
65659;BME280;60181;53.258;6.932;2023-04-06T00:20:33;102069.02;;;13.06;53.86
65659;BME280;60181;53.258;6.932;2023-04-06T00:24:37;102065.88;;;13.05;53.78
65659;BME280;60181;53.258;6.932;2023-04-06T00:28:41;102062.02;;;13.05;53.81
65659;BME280;60181;53.258;6.932;2023-04-06T00:32:45;102058.53;;;13.05;53.71
65659;BME280;60181;53.258;6.932;2023-04-06T00:36:49;102055.31;;;13.04;53.78
65659;BME280;60181;53.258;6.932;2023-04-06T00:40:53;102053.05;;;13.04;53.70
65659;BME280;60181;53.258;6.932;2023-04-06T00:44:58;102050.17;;;13.03;53.69
65659;BME280;60181;53.258;6.932;2023-04-06T00:49:01;102047.30;;;13.03;53.67
65659;BME280;60181;53.258;6.932;2023-04-06T00:53:05;102044.46;;;13.03;53.73
65659;BME280;60181;53.258;6.932;2023-04-06T00:57:09;102041.00;;;13.02;53.68
65659;BME280;60181;53.258;6.932;2023-04-06T01:01:13;102038.03;;;13.02;53.74
65659;BME280;60181;53.258;6.932;2023-04-06T01:05:17;102032.61;;;13.00;53.81
65659;BME280;60181;53.258;6.932;2023-04-06T01:13:25;102023.27;;;12.99;53.75
65659;BME280;60181;53.258;6.932;2023-04-06T01:17:29;102019.08;;;12.98;53.70
65659;BME280;60181;53.258;6.932;2023-04-06T01:21:33;102014.26;;;12.97;53.75
65659;BME280;60181;53.258;6.932;2023-04-06T01:25:37;102010.77;;;12.97;53.75
65659;BME280;60181;53.258;6.932;2023-04-06T01:29:41;102007.40;;;12.96;53.81
65659;BME280;60181;53.258;6.932;2023-04-06T01:33:45;102003.58;;;12.96;53.73
65659;BME280;60181;53.258;6.932;2023-04-06T01:37:49;102000.04;;;12.96;53.62
65659;BME280;60181;53.258;6.932;2023-04-06T01:41:53;101996.14;;;12.95;53.68
65659;BME280;60181;53.258;6.932;2023-04-06T01:45:57;101992.92;;;12.95;53.73
65659;BME280;60181;53.258;6.932;2023-04-06T01:50:01;101989.14;;;12.94;53.71
65659;BME280;60181;53.258;6.932;2023-04-06T01:54:05;101985.49;;;12.93;53.68
65659;BME280;60181;53.258;6.932;2023-04-06T01:58:09;101982.40;;;12.92;53.72
65659;BME280;60181;53.258;6.932;2023-04-06T02:02:13;101978.50;;;12.91;53.64
65659;BME280;60181;53.258;6.932;2023-04-06T02:06:17;101975.04;;;12.91;53.72
65659;BME280;60181;53.258;6.932;2023-04-06T02:10:21;101971.79;;;12.90;53.75
65659;BME280;60181;53.258;6.932;2023-04-06T02:14:25;101968.95;;;12.89;53.70
65659;BME280;60181;53.258;6.932;2023-04-06T02:18:31;101966.32;;;12.89;53.74
65659;BME280;60181;53.258;6.932;2023-04-06T02:22:33;101963.00;;;12.88;53.68
65659;BME280;60181;53.258;6.932;2023-04-06T02:26:37;101960.61;;;12.88;53.70
65659;BME280;60181;53.258;6.932;2023-04-06T02:30:52;101956.95;;;12.87;53.68
65659;BME280;60181;53.258;6.932;2023-04-06T02:34:45;101953.66;;;12.86;53.69
65659;BME280;60181;53.258;6.932;2023-04-06T02:38:49;101950.41;;;12.86;53.66
65659;BME280;60181;53.258;6.932;2023-04-06T02:42:53;101947.83;;;12.85;53.72
65659;BME280;60181;53.258;6.932;2023-04-06T02:46:57;101945.68;;;12.85;53.80
65659;BME280;60181;53.258;6.932;2023-04-06T02:51:01;101942.64;;;12.84;53.65
65659;BME280;60181;53.258;6.932;2023-04-06T02:55:10;101939.39;;;12.83;53.63
65659;BME280;60181;53.258;6.932;2023-04-06T02:59:09;101937.08;;;12.83;53.70
65659;BME280;60181;53.258;6.932;2023-04-06T03:03:13;101934.83;;;12.82;53.69
65659;BME280;60181;53.258;6.932;2023-04-06T03:07:17;101932.00;;;12.81;53.69
65659;BME280;60181;53.258;6.932;2023-04-06T03:11:21;101928.94;;;12.81;53.71
65659;BME280;60181;53.258;6.932;2023-04-06T03:15:25;101926.20;;;12.80;53.62
65659;BME280;60181;53.258;6.932;2023-04-06T03:19:29;101924.47;;;12.80;53.68
65659;BME280;60181;53.258;6.932;2023-04-06T03:23:33;101922.66;;;12.80;53.68
65659;BME280;60181;53.258;6.932;2023-04-06T03:27:37;101920.23;;;12.79;53.66
65659;BME280;60181;53.258;6.932;2023-04-06T03:31:41;101918.09;;;12.78;53.60
65659;BME280;60181;53.258;6.932;2023-04-06T03:35:45;101916.00;;;12.78;53.61
65659;BME280;60181;53.258;6.932;2023-04-06T03:39:49;101913.62;;;12.78;53.62
65659;BME280;60181;53.258;6.932;2023-04-06T03:43:53;101911.24;;;12.78;53.59
65659;BME280;60181;53.258;6.932;2023-04-06T03:47:56;101908.65;;;12.77;53.73
65659;BME280;60181;53.258;6.932;2023-04-06T03:52:01;101905.89;;;12.75;53.62
65659;BME280;60181;53.258;6.932;2023-04-06T03:56:05;101903.96;;;12.74;53.68
65659;BME280;60181;53.258;6.932;2023-04-06T04:00:09;101902.03;;;12.73;53.67
65659;BME280;60181;53.258;6.932;2023-04-06T04:04:18;101900.62;;;12.73;53.65
65659;BME280;60181;53.258;6.932;2023-04-06T04:08:16;101898.81;;;12.73;53.60
65659;BME280;60181;53.258;6.932;2023-04-06T04:12:20;101898.13;;;12.72;53.67
65659;BME280;60181;53.258;6.932;2023-04-06T04:16:24;101898.21;;;12.72;53.53
65659;BME280;60181;53.258;6.932;2023-04-06T04:20:28;101897.85;;;12.71;53.60
65659;BME280;60181;53.258;6.932;2023-04-06T04:24:32;101897.47;;;12.70;53.63
65659;BME280;60181;53.258;6.932;2023-04-06T04:28:36;101896.85;;;12.69;53.71
65659;BME280;60181;53.258;6.932;2023-04-06T04:32:40;101896.48;;;12.68;53.64
65659;BME280;60181;53.258;6.932;2023-04-06T04:36:45;101896.89;;;12.68;53.61
65659;BME280;60181;53.258;6.932;2023-04-06T04:40:48;101896.89;;;12.67;53.57
65659;BME280;60181;53.258;6.932;2023-04-06T04:44:52;101897.27;;;12.67;53.48
65659;BME280;60181;53.258;6.932;2023-04-06T04:48:56;101897.51;;;12.67;53.53
65659;BME280;60181;53.258;6.932;2023-04-06T04:53:00;101896.68;;;12.66;53.48
65659;BME280;60181;53.258;6.932;2023-04-06T04:57:04;101895.74;;;12.65;53.52
65659;BME280;60181;53.258;6.932;2023-04-06T05:01:08;101896.07;;;12.65;53.53
65659;BME280;60181;53.258;6.932;2023-04-06T05:05:13;101895.90;;;12.65;53.51
65659;BME280;60181;53.258;6.932;2023-04-06T05:09:16;101895.12;;;12.65;53.55
65659;BME280;60181;53.258;6.932;2023-04-06T05:13:20;101894.55;;;12.64;53.53
65659;BME280;60181;53.258;6.932;2023-04-06T05:17:24;101893.65;;;12.65;53.38
65659;BME280;60181;53.258;6.932;2023-04-06T05:21:28;101891.92;;;12.64;53.54
65659;BME280;60181;53.258;6.932;2023-04-06T05:25:41;101892.08;;;12.64;53.47
65659;BME280;60181;53.258;6.932;2023-04-06T05:29:36;101891.13;;;12.65;53.39
65659;BME280;60181;53.258;6.932;2023-04-06T05:33:40;101889.98;;;12.65;53.43
65659;BME280;60181;53.258;6.932;2023-04-06T05:37:45;101888.22;;;12.66;53.29
65659;BME280;60181;53.258;6.932;2023-04-06T05:41:48;101885.76;;;12.67;53.24
65659;BME280;60181;53.258;6.932;2023-04-06T05:45:52;101883.74;;;12.68;53.23
65659;BME280;60181;53.258;6.932;2023-04-06T05:49:56;101882.14;;;12.69;53.18
65659;BME280;60181;53.258;6.932;2023-04-06T05:54:00;101880.74;;;12.71;53.07
65659;BME280;60181;53.258;6.932;2023-04-06T05:58:04;101879.42;;;12.73;52.83
65659;BME280;60181;53.258;6.932;2023-04-06T06:02:08;101877.40;;;12.76;52.74
65659;BME280;60181;53.258;6.932;2023-04-06T06:06:12;101875.05;;;12.79;52.67
65659;BME280;60181;53.258;6.932;2023-04-06T06:10:16;101872.96;;;12.81;52.67
65659;BME280;60181;53.258;6.932;2023-04-06T06:14:20;101871.89;;;12.83;52.68
65659;BME280;60181;53.258;6.932;2023-04-06T06:18:24;101870.56;;;12.85;52.63
65659;BME280;60181;53.258;6.932;2023-04-06T06:22:28;101869.12;;;12.87;52.56
65659;BME280;60181;53.258;6.932;2023-04-06T06:26:32;101867.56;;;12.88;52.56
65659;BME280;60181;53.258;6.932;2023-04-06T06:30:36;101866.16;;;12.90;52.87
65659;BME280;60181;53.258;6.932;2023-04-06T06:34:40;101865.41;;;12.93;52.68
65659;BME280;60181;53.258;6.932;2023-04-06T06:38:44;101863.94;;;12.96;52.49
65659;BME280;60181;53.258;6.932;2023-04-06T06:42:48;101864.73;;;12.99;52.36
65659;BME280;60181;53.258;6.932;2023-04-06T06:46:52;101866.09;;;13.03;52.22
65659;BME280;60181;53.258;6.932;2023-04-06T06:50:56;101867.77;;;13.06;52.29
65659;BME280;60181;53.258;6.932;2023-04-06T06:55:00;101868.34;;;13.08;52.42
65659;BME280;60181;53.258;6.932;2023-04-06T06:59:05;101866.99;;;13.10;52.35
65659;BME280;60181;53.258;6.932;2023-04-06T07:03:08;101864.51;;;13.10;52.45
65659;BME280;60181;53.258;6.932;2023-04-06T07:07:12;101862.25;;;13.11;52.36
65659;BME280;60181;53.258;6.932;2023-04-06T07:11:16;101861.47;;;13.12;52.31
65659;BME280;60181;53.258;6.932;2023-04-06T07:15:20;101859.07;;;13.14;52.27
65659;BME280;60181;53.258;6.932;2023-04-06T07:19:24;101857.70;;;13.18;52.67
65659;BME280;60181;53.258;6.932;2023-04-06T07:23:28;101856.13;;;13.22;52.48
65659;BME280;60181;53.258;6.932;2023-04-06T07:27:32;101855.20;;;13.26;52.16
65659;BME280;60181;53.258;6.932;2023-04-06T07:31:36;101853.34;;;13.30;52.08
65659;BME280;60181;53.258;6.932;2023-04-06T07:35:40;101851.03;;;13.34;52.13
65659;BME280;60181;53.258;6.932;2023-04-06T07:39:44;101849.00;;;13.38;52.07
65659;BME280;60181;53.258;6.932;2023-04-06T07:43:48;101847.50;;;13.42;52.13
65659;BME280;60181;53.258;6.932;2023-04-06T07:47:52;101844.56;;;13.44;52.20
65659;BME280;60181;53.258;6.932;2023-04-06T07:51:56;101841.26;;;13.47;52.32
65659;BME280;60181;53.258;6.932;2023-04-06T07:56:00;101837.95;;;13.49;52.31
65659;BME280;60181;53.258;6.932;2023-04-06T08:00:05;101835.35;;;13.52;52.17
65659;BME280;60181;53.258;6.932;2023-04-06T08:04:08;101833.51;;;13.57;51.97
65659;BME280;60181;53.258;6.932;2023-04-06T08:08:12;101832.33;;;13.63;51.76
65659;BME280;60181;53.258;6.932;2023-04-06T08:12:16;101830.11;;;13.69;51.59
65659;BME280;60181;53.258;6.932;2023-04-06T08:16:20;101829.33;;;13.75;51.47
65659;BME280;60181;53.258;6.932;2023-04-06T08:20:24;101828.23;;;13.81;51.42
65659;BME280;60181;53.258;6.932;2023-04-06T08:28:32;101827.26;;;13.91;51.34
65659;BME280;60181;53.258;6.932;2023-04-06T08:32:36;101827.39;;;13.96;51.30
65659;BME280;60181;53.258;6.932;2023-04-06T08:36:40;101825.44;;;14.00;51.29
65659;BME280;60181;53.258;6.932;2023-04-06T08:40:44;101823.75;;;14.03;51.33
65659;BME280;60181;53.258;6.932;2023-04-06T08:44:48;101822.46;;;14.07;51.21
65659;BME280;60181;53.258;6.932;2023-04-06T08:48:52;101819.84;;;14.10;51.25
65659;BME280;60181;53.258;6.932;2023-04-06T08:52:56;101818.70;;;14.13;51.27
65659;BME280;60181;53.258;6.932;2023-04-06T08:57:00;101817.13;;;14.15;51.27
65659;BME280;60181;53.258;6.932;2023-04-06T09:01:07;101816.50;;;14.17;51.32
65659;BME280;60181;53.258;6.932;2023-04-06T09:05:08;101815.08;;;14.19;51.38
65659;BME280;60181;53.258;6.932;2023-04-06T09:09:12;101814.28;;;14.20;51.33
65659;BME280;60181;53.258;6.932;2023-04-06T09:13:16;101812.20;;;14.22;51.35
65659;BME280;60181;53.258;6.932;2023-04-06T09:17:23;101809.44;;;14.24;51.30
65659;BME280;60181;53.258;6.932;2023-04-06T09:21:24;101807.40;;;14.25;51.32
65659;BME280;60181;53.258;6.932;2023-04-06T09:25:31;101804.17;;;14.26;51.34
65659;BME280;60181;53.258;6.932;2023-04-06T09:29:32;101801.95;;;14.27;51.36
65659;BME280;60181;53.258;6.932;2023-04-06T09:33:44;101799.10;;;14.28;51.43
65659;BME280;60181;53.258;6.932;2023-04-06T09:37:40;101795.79;;;14.28;51.43
65659;BME280;60181;53.258;6.932;2023-04-06T09:41:48;101791.11;;;14.28;51.51
65659;BME280;60181;53.258;6.932;2023-04-06T09:45:48;101786.82;;;14.28;51.59
65659;BME280;60181;53.258;6.932;2023-04-06T09:49:55;101781.95;;;14.28;51.54
65659;BME280;60181;53.258;6.932;2023-04-06T09:53:56;101779.24;;;14.28;51.54
65659;BME280;60181;53.258;6.932;2023-04-06T09:58:06;101775.75;;;14.27;51.60
65659;BME280;60181;53.258;6.932;2023-04-06T10:02:05;101774.34;;;14.27;51.60
65659;BME280;60181;53.258;6.932;2023-04-06T10:06:10;101771.67;;;14.26;51.65
65659;BME280;60181;53.258;6.932;2023-04-06T10:10:12;101768.59;;;14.25;51.78
65659;BME280;60181;53.258;6.932;2023-04-06T10:14:16;101764.20;;;14.24;51.79
65659;BME280;60181;53.258;6.932;2023-04-06T10:18:20;101760.21;;;14.23;51.83
65659;BME280;60181;53.258;6.932;2023-04-06T10:22:26;101757.21;;;14.22;51.89
65659;BME280;60181;53.258;6.932;2023-04-06T10:26:28;101753.89;;;14.20;51.96
65659;BME280;60181;53.258;6.932;2023-04-06T10:30:32;101750.86;;;14.18;51.81
65659;BME280;60181;53.258;6.932;2023-04-06T10:34:36;101749.31;;;14.16;51.88
65659;BME280;60181;53.258;6.932;2023-04-06T10:38:41;101746.77;;;14.14;52.07
65659;BME280;60181;53.258;6.932;2023-04-06T10:42:44;101745.01;;;14.12;51.99
65659;BME280;60181;53.258;6.932;2023-04-06T10:46:57;101742.92;;;14.11;51.94
65659;BME280;60181;53.258;6.932;2023-04-06T10:50:52;101741.16;;;14.10;52.07
65659;BME280;60181;53.258;6.932;2023-04-06T10:54:56;101738.73;;;14.09;52.19
65659;BME280;60181;53.258;6.932;2023-04-06T10:59:03;101735.36;;;14.09;52.23
65659;BME280;60181;53.258;6.932;2023-04-06T11:03:04;101732.37;;;14.08;52.23
65659;BME280;60181;53.258;6.932;2023-04-06T11:07:08;101728.91;;;14.08;52.15
65659;BME280;60181;53.258;6.932;2023-04-06T11:11:13;101725.25;;;14.07;52.31
65659;BME280;60181;53.258;6.932;2023-04-06T11:15:16;101723.11;;;14.07;52.20
65659;BME280;60181;53.258;6.932;2023-04-06T11:19:20;101720.28;;;14.06;52.27
65659;BME280;60181;53.258;6.932;2023-04-06T11:23:24;101718.13;;;14.05;52.30
65659;BME280;60181;53.258;6.932;2023-04-06T11:27:28;101716.29;;;14.05;52.16
65659;BME280;60181;53.258;6.932;2023-04-06T11:31:37;101714.48;;;14.04;52.32
65659;BME280;60181;53.258;6.932;2023-04-06T11:35:36;101712.75;;;14.04;52.49
65659;BME280;60181;53.258;6.932;2023-04-06T11:39:43;101710.91;;;14.04;52.26
65659;BME280;60181;53.258;6.932;2023-04-06T11:43:47;101709.67;;;14.03;52.29
65659;BME280;60181;53.258;6.932;2023-04-06T11:47:57;101708.84;;;14.03;52.20
65659;BME280;60181;53.258;6.932;2023-04-06T11:51:52;101707.93;;;14.04;52.41
65659;BME280;60181;53.258;6.932;2023-04-06T11:55:56;101705.63;;;14.04;52.40
65659;BME280;60181;53.258;6.932;2023-04-06T12:00:00;101703.16;;;14.04;52.47
65659;BME280;60181;53.258;6.932;2023-04-06T12:04:04;101699.13;;;14.04;52.50
65659;BME280;60181;53.258;6.932;2023-04-06T12:08:08;101697.67;;;14.04;52.37
65659;BME280;60181;53.258;6.932;2023-04-06T12:12:12;101694.30;;;14.05;52.43
65659;BME280;60181;53.258;6.932;2023-04-06T12:16:16;101689.84;;;14.05;52.48
65659;BME280;60181;53.258;6.932;2023-04-06T12:20:20;101687.05;;;14.05;52.54
65659;BME280;60181;53.258;6.932;2023-04-06T12:24:24;101683.75;;;14.05;52.44
65659;BME280;60181;53.258;6.932;2023-04-06T12:28:28;101680.78;;;14.05;52.42
65659;BME280;60181;53.258;6.932;2023-04-06T12:32:32;101677.66;;;14.05;52.45
65659;BME280;60181;53.258;6.932;2023-04-06T12:36:36;101674.19;;;14.05;52.60
65659;BME280;60181;53.258;6.932;2023-04-06T12:40:40;101671.64;;;14.04;52.61
65659;BME280;60181;53.258;6.932;2023-04-06T12:44:44;101670.15;;;14.04;52.61
65659;BME280;60181;53.258;6.932;2023-04-06T12:48:48;101667.82;;;14.04;52.64
65659;BME280;60181;53.258;6.932;2023-04-06T12:52:52;101664.94;;;14.04;52.45
65659;BME280;60181;53.258;6.932;2023-04-06T12:56:56;101660.82;;;14.03;52.58
65659;BME280;60181;53.258;6.932;2023-04-06T13:01:00;101657.33;;;14.03;52.46
65659;BME280;60181;53.258;6.932;2023-04-06T13:05:04;101654.03;;;14.02;52.64
65659;BME280;60181;53.258;6.932;2023-04-06T13:09:08;101650.70;;;14.02;52.63
65659;BME280;60181;53.258;6.932;2023-04-06T13:13:12;101647.91;;;14.01;52.60
65659;BME280;60181;53.258;6.932;2023-04-06T13:17:16;101645.68;;;14.01;52.70
65659;BME280;60181;53.258;6.932;2023-04-06T13:21:20;101642.94;;;14.00;52.60
65659;BME280;60181;53.258;6.932;2023-04-06T13:25:24;101641.04;;;14.00;52.73
65659;BME280;60181;53.258;6.932;2023-04-06T13:29:28;101637.39;;;13.99;52.68
65659;BME280;60181;53.258;6.932;2023-04-06T13:33:32;101635.49;;;13.99;52.80
65659;BME280;60181;53.258;6.932;2023-04-06T13:37:36;101633.68;;;13.99;52.72
65659;BME280;60181;53.258;6.932;2023-04-06T13:41:40;101631.95;;;13.99;52.87
65659;BME280;60181;53.258;6.932;2023-04-06T13:45:48;101630.22;;;13.99;52.67
65659;BME280;60181;53.258;6.932;2023-04-06T13:49:49;101627.67;;;13.99;52.76
65659;BME280;60181;53.258;6.932;2023-04-06T13:53:52;101625.03;;;13.99;52.74
65659;BME280;60181;53.258;6.932;2023-04-06T13:57:56;101623.11;;;13.98;52.80
65659;BME280;60181;53.258;6.932;2023-04-06T14:02:00;101621.78;;;13.98;52.94
65659;BME280;60181;53.258;6.932;2023-04-06T14:06:13;101619.98;;;13.98;52.82
65659;BME280;60181;53.258;6.932;2023-04-06T14:10:08;101618.74;;;13.98;52.79
65659;BME280;60181;53.258;6.932;2023-04-06T14:14:12;101617.02;;;13.97;52.84
65659;BME280;60181;53.258;6.932;2023-04-06T14:18:16;101615.25;;;13.97;53.09
65659;BME280;60181;53.258;6.932;2023-04-06T14:22:20;101614.01;;;13.97;52.85
65659;BME280;60181;53.258;6.932;2023-04-06T14:26:24;101611.95;;;13.97;53.03
65659;BME280;60181;53.258;6.932;2023-04-06T14:30:29;101611.13;;;13.97;52.96
65659;BME280;60181;53.258;6.932;2023-04-06T14:34:32;101608.47;;;13.96;52.97
65659;BME280;60181;53.258;6.932;2023-04-06T14:38:36;101606.91;;;13.96;53.11
65659;BME280;60181;53.258;6.932;2023-04-06T14:42:40;101604.68;;;13.96;52.92
65659;BME280;60181;53.258;6.932;2023-04-06T14:46:44;101602.17;;;13.95;52.95
65659;BME280;60181;53.258;6.932;2023-04-06T14:50:54;101599.22;;;13.95;52.96
65659;BME280;60181;53.258;6.932;2023-04-06T14:54:52;101595.97;;;13.94;52.95
65659;BME280;60181;53.258;6.932;2023-04-06T14:58:57;101593.83;;;13.93;52.99
65659;BME280;60181;53.258;6.932;2023-04-06T15:02:59;101591.66;;;13.93;53.06
65659;BME280;60181;53.258;6.932;2023-04-06T15:07:03;101589.93;;;13.92;53.04
65659;BME280;60181;53.258;6.932;2023-04-06T15:11:08;101588.58;;;13.92;53.08
65659;BME280;60181;53.258;6.932;2023-04-06T15:15:11;101586.44;;;13.91;53.04
65659;BME280;60181;53.258;6.932;2023-04-06T15:19:15;101585.10;;;13.90;53.12
65659;BME280;60181;53.258;6.932;2023-04-06T15:23:19;101585.67;;;13.90;53.08
65659;BME280;60181;53.258;6.932;2023-04-06T15:27:23;101584.74;;;13.89;53.22
65659;BME280;60181;53.258;6.932;2023-04-06T15:31:27;101585.39;;;13.89;53.25
65659;BME280;60181;53.258;6.932;2023-04-06T15:35:32;101585.36;;;13.88;53.19
65659;BME280;60181;53.258;6.932;2023-04-06T15:39:35;101586.52;;;13.88;53.34
65659;BME280;60181;53.258;6.932;2023-04-06T15:43:39;101586.02;;;13.87;53.16
65659;BME280;60181;53.258;6.932;2023-04-06T15:47:44;101586.99;;;13.87;53.37
65659;BME280;60181;53.258;6.932;2023-04-06T15:51:48;101587.64;;;13.86;53.36
65659;BME280;60181;53.258;6.932;2023-04-06T15:55:57;101588.02;;;13.86;53.27
65659;BME280;60181;53.258;6.932;2023-04-06T15:59:56;101589.31;;;13.85;53.49
65659;BME280;60181;53.258;6.932;2023-04-06T16:03:59;101591.04;;;13.85;53.41
65659;BME280;60181;53.258;6.932;2023-04-06T16:08:03;101592.52;;;13.84;53.49
65659;BME280;60181;53.258;6.932;2023-04-06T16:12:07;101595.40;;;13.84;53.49
65659;BME280;60181;53.258;6.932;2023-04-06T16:16:11;101598.33;;;13.83;53.49
65659;BME280;60181;53.258;6.932;2023-04-06T16:20:15;101601.06;;;13.83;53.58
65659;BME280;60181;53.258;6.932;2023-04-06T16:24:19;101604.65;;;13.83;53.58
65659;BME280;60181;53.258;6.932;2023-04-06T16:28:23;101607.78;;;13.82;53.59
65659;BME280;60181;53.258;6.932;2023-04-06T16:32:27;101610.83;;;13.82;53.63
65659;BME280;60181;53.258;6.932;2023-04-06T16:36:31;101613.43;;;13.81;53.57
65659;BME280;60181;53.258;6.932;2023-04-06T16:40:35;101614.75;;;13.81;53.70
65659;BME280;60181;53.258;6.932;2023-04-06T16:44:39;101616.19;;;13.80;53.67
65659;BME280;60181;53.258;6.932;2023-04-06T16:48:43;101616.52;;;13.80;53.70
65659;BME280;60181;53.258;6.932;2023-04-06T16:52:47;101616.99;;;13.79;53.70
65659;BME280;60181;53.258;6.932;2023-04-06T16:56:51;101617.97;;;13.79;53.61
65659;BME280;60181;53.258;6.932;2023-04-06T17:00:55;101619.59;;;13.78;53.67
65659;BME280;60181;53.258;6.932;2023-04-06T17:04:59;101622.48;;;13.78;53.70
65659;BME280;60181;53.258;6.932;2023-04-06T17:09:03;101626.59;;;13.78;53.69
65659;BME280;60181;53.258;6.932;2023-04-06T17:13:07;101630.35;;;13.77;53.66
65659;BME280;60181;53.258;6.932;2023-04-06T17:17:11;101634.38;;;13.77;53.64
65659;BME280;60181;53.258;6.932;2023-04-06T17:21:15;101637.02;;;13.76;53.68
65659;BME280;60181;53.258;6.932;2023-04-06T17:25:19;101639.95;;;13.76;53.71
65659;BME280;60181;53.258;6.932;2023-04-06T17:29:23;101643.41;;;13.75;53.75
65659;BME280;60181;53.258;6.932;2023-04-06T17:33:27;101646.01;;;13.75;53.72
65659;BME280;60181;53.258;6.932;2023-04-06T17:37:31;101647.05;;;13.74;53.91
65659;BME280;60181;53.258;6.932;2023-04-06T17:41:35;101648.28;;;13.73;53.86
65659;BME280;60181;53.258;6.932;2023-04-06T17:45:39;101650.56;;;13.73;54.01
65659;BME280;60181;53.258;6.932;2023-04-06T17:49:43;101653.03;;;13.72;54.04
65659;BME280;60181;53.258;6.932;2023-04-06T17:53:47;101655.63;;;13.72;54.14
65659;BME280;60181;53.258;6.932;2023-04-06T17:57:51;101659.09;;;13.71;54.12
65659;BME280;60181;53.258;6.932;2023-04-06T18:01:55;101661.11;;;13.70;54.16
65659;BME280;60181;53.258;6.932;2023-04-06T18:06:11;101663.42;;;13.70;54.20
65659;BME280;60181;53.258;6.932;2023-04-06T18:10:04;101666.36;;;13.69;54.18
65659;BME280;60181;53.258;6.932;2023-04-06T18:14:07;101669.41;;;13.69;54.22
65659;BME280;60181;53.258;6.932;2023-04-06T18:18:11;101672.33;;;13.68;54.24
65659;BME280;60181;53.258;6.932;2023-04-06T18:22:15;101674.97;;;13.67;54.24
65659;BME280;60181;53.258;6.932;2023-04-06T18:26:19;101676.42;;;13.67;54.28
65659;BME280;60181;53.258;6.932;2023-04-06T18:30:23;101676.83;;;13.66;54.30
65659;BME280;60181;53.258;6.932;2023-04-06T18:34:27;101676.96;;;13.66;54.30
65659;BME280;60181;53.258;6.932;2023-04-06T18:38:31;101677.45;;;13.65;54.38
65659;BME280;60181;53.258;6.932;2023-04-06T18:42:35;101677.67;;;13.64;54.38
65659;BME280;60181;53.258;6.932;2023-04-06T18:46:39;101677.97;;;13.64;54.37
65659;BME280;60181;53.258;6.932;2023-04-06T18:50:52;101679.28;;;13.63;54.36
65659;BME280;60181;53.258;6.932;2023-04-06T18:54:47;101680.41;;;13.63;54.40
65659;BME280;60181;53.258;6.932;2023-04-06T18:58:51;101681.72;;;13.62;54.41
65659;BME280;60181;53.258;6.932;2023-04-06T19:02:55;101682.37;;;13.62;54.45
65659;BME280;60181;53.258;6.932;2023-04-06T19:06:59;101681.85;;;13.61;54.47
65659;BME280;60181;53.258;6.932;2023-04-06T19:11:06;101681.11;;;13.61;54.49
65659;BME280;60181;53.258;6.932;2023-04-06T19:15:08;101681.36;;;13.61;54.50
65659;BME280;60181;53.258;6.932;2023-04-06T19:19:11;101681.08;;;13.60;54.48
65659;BME280;60181;53.258;6.932;2023-04-06T19:23:15;101680.66;;;13.60;54.50
65659;BME280;60181;53.258;6.932;2023-04-06T19:27:19;101680.58;;;13.60;54.47
65659;BME280;60181;53.258;6.932;2023-04-06T19:31:23;101680.83;;;13.60;54.49
65659;BME280;60181;53.258;6.932;2023-04-06T19:35:27;101681.62;;;13.59;54.53
65659;BME280;60181;53.258;6.932;2023-04-06T19:39:31;101683.11;;;13.59;54.60
65659;BME280;60181;53.258;6.932;2023-04-06T19:43:35;101684.34;;;13.59;54.60
65659;BME280;60181;53.258;6.932;2023-04-06T19:47:39;101686.06;;;13.59;54.61
65659;BME280;60181;53.258;6.932;2023-04-06T19:51:43;101687.02;;;13.58;54.58
65659;BME280;60181;53.258;6.932;2023-04-06T19:55:47;101687.52;;;13.58;54.61
65659;BME280;60181;53.258;6.932;2023-04-06T19:59:55;101686.86;;;13.58;54.62
65659;BME280;60181;53.258;6.932;2023-04-06T20:03:55;101686.77;;;13.57;54.64
65659;BME280;60181;53.258;6.932;2023-04-06T20:07:59;101685.35;;;13.57;54.67
65659;BME280;60181;53.258;6.932;2023-04-06T20:12:03;101684.52;;;13.57;54.67
65659;BME280;60181;53.258;6.932;2023-04-06T20:16:07;101683.61;;;13.56;54.65
65659;BME280;60181;53.258;6.932;2023-04-06T20:20:11;101681.85;;;13.56;54.69
65659;BME280;60181;53.258;6.932;2023-04-06T20:24:15;101679.88;;;13.56;54.74
65659;BME280;60181;53.258;6.932;2023-04-06T20:28:19;101678.48;;;13.55;54.72
65659;BME280;60181;53.258;6.932;2023-04-06T20:32:23;101678.31;;;13.55;54.73
65659;BME280;60181;53.258;6.932;2023-04-06T20:36:29;101677.40;;;13.55;54.73
65659;BME280;60181;53.258;6.932;2023-04-06T20:40:31;101676.54;;;13.55;54.71
65659;BME280;60181;53.258;6.932;2023-04-06T20:44:35;101675.48;;;13.54;54.80
65659;BME280;60181;53.258;6.932;2023-04-06T20:48:39;101674.66;;;13.54;54.84
65659;BME280;60181;53.258;6.932;2023-04-06T20:52:43;101674.13;;;13.54;54.79
65659;BME280;60181;53.258;6.932;2023-04-06T20:56:47;101673.39;;;13.54;54.84
65659;BME280;60181;53.258;6.932;2023-04-06T21:00:51;101671.09;;;13.53;54.83
65659;BME280;60181;53.258;6.932;2023-04-06T21:04:55;101668.50;;;13.53;54.81
65659;BME280;60181;53.258;6.932;2023-04-06T21:08:59;101665.45;;;13.52;54.82
65659;BME280;60181;53.258;6.932;2023-04-06T21:13:03;101662.73;;;13.52;54.84
65659;BME280;60181;53.258;6.932;2023-04-06T21:17:07;101660.02;;;13.52;54.79
65659;BME280;60181;53.258;6.932;2023-04-06T21:21:11;101657.47;;;13.52;54.83